sensor_id;sensor_type;location;lat;lon;timestamp;temperature;humidity
27890;DHT22;15238;49.082;9.102;2023-04-19T00:01:11;9.40;99.90
27890;DHT22;15238;49.082;9.102;2023-04-19T00:03:11;9.40;99.90
27890;DHT22;15238;49.082;9.102;2023-04-19T00:05:14;9.50;99.90
27890;DHT22;15238;49.082;9.102;2023-04-19T00:07:14;9.40;99.90
27890;DHT22;15238;49.082;9.102;2023-04-19T00:09:16;9.40;99.90
27890;DHT22;15238;49.082;9.102;2023-04-19T00:11:17;9.40;99.90
27890;DHT22;15238;49.082;9.102;2023-04-19T00:13:17;9.40;99.90
27890;DHT22;15238;49.082;9.102;2023-04-19T00:15:18;9.40;99.90
27890;DHT22;15238;49.082;9.102;2023-04-19T00:17:18;9.30;99.90
27890;DHT22;15238;49.082;9.102;2023-04-19T00:19:20;9.30;99.90
27890;DHT22;15238;49.082;9.102;2023-04-19T00:21:21;9.30;99.90
27890;DHT22;15238;49.082;9.102;2023-04-19T00:23:22;9.30;99.90
27890;DHT22;15238;49.082;9.102;2023-04-19T00:25:22;9.30;99.90
27890;DHT22;15238;49.082;9.102;2023-04-19T00:27:23;9.30;99.90
27890;DHT22;15238;49.082;9.102;2023-04-19T00:29:23;9.30;99.90
27890;DHT22;15238;49.082;9.102;2023-04-19T00:31:24;9.30;99.90
27890;DHT22;15238;49.082;9.102;2023-04-19T00:33:25;9.30;99.90
27890;DHT22;15238;49.082;9.102;2023-04-19T00:35:25;9.30;99.90
27890;DHT22;15238;49.082;9.102;2023-04-19T00:37:26;9.40;99.90
27890;DHT22;15238;49.082;9.102;2023-04-19T00:39:26;9.30;99.90
27890;DHT22;15238;49.082;9.102;2023-04-19T00:41:27;9.40;99.90
27890;DHT22;15238;49.082;9.102;2023-04-19T00:43:27;9.40;99.90
27890;DHT22;15238;49.082;9.102;2023-04-19T00:45:28;9.40;99.90
27890;DHT22;15238;49.082;9.102;2023-04-19T00:47:29;9.30;99.90
27890;DHT22;15238;49.082;9.102;2023-04-19T00:49:30;9.30;99.90
27890;DHT22;15238;49.082;9.102;2023-04-19T00:51:30;9.30;99.90
27890;DHT22;15238;49.082;9.102;2023-04-19T00:53:31;9.30;99.90
27890;DHT22;15238;49.082;9.102;2023-04-19T00:55:32;9.30;99.90
27890;DHT22;15238;49.082;9.102;2023-04-19T00:57:32;9.20;99.90
27890;DHT22;15238;49.082;9.102;2023-04-19T00:59:34;9.20;99.90
27890;DHT22;15238;49.082;9.102;2023-04-19T01:01:34;9.20;99.90
27890;DHT22;15238;49.082;9.102;2023-04-19T01:03:35;9.10;99.90
27890;DHT22;15238;49.082;9.102;2023-04-19T01:05:36;9.10;99.90
27890;DHT22;15238;49.082;9.102;2023-04-19T01:07:36;9.20;99.90
27890;DHT22;15238;49.082;9.102;2023-04-19T01:09:42;9.20;99.90
27890;DHT22;15238;49.082;9.102;2023-04-19T01:11:42;9.20;99.90
27890;DHT22;15238;49.082;9.102;2023-04-19T01:13:43;9.20;99.90
27890;DHT22;15238;49.082;9.102;2023-04-19T01:15:43;9.10;99.90
27890;DHT22;15238;49.082;9.102;2023-04-19T01:17:44;9.20;99.90
27890;DHT22;15238;49.082;9.102;2023-04-19T01:19:45;9.20;99.90
27890;DHT22;15238;49.082;9.102;2023-04-19T01:21:45;9.10;99.90
27890;DHT22;15238;49.082;9.102;2023-04-19T01:23:46;9.20;99.90
27890;DHT22;15238;49.082;9.102;2023-04-19T01:25:46;9.10;99.90
27890;DHT22;15238;49.082;9.102;2023-04-19T01:27:47;9.10;99.90
27890;DHT22;15238;49.082;9.102;2023-04-19T01:29:48;9.10;99.90
27890;DHT22;15238;49.082;9.102;2023-04-19T01:31:48;9.10;99.90
27890;DHT22;15238;49.082;9.102;2023-04-19T01:33:52;9.10;99.90
27890;DHT22;15238;49.082;9.102;2023-04-19T01:35:53;9.10;99.90
27890;DHT22;15238;49.082;9.102;2023-04-19T01:37:53;9.10;99.90
27890;DHT22;15238;49.082;9.102;2023-04-19T01:39:55;9.10;99.90
27890;DHT22;15238;49.082;9.102;2023-04-19T01:41:56;9.10;99.90
27890;DHT22;15238;49.082;9.102;2023-04-19T01:43:56;9.00;99.90
27890;DHT22;15238;49.082;9.102;2023-04-19T01:45:57;9.10;99.90
27890;DHT22;15238;49.082;9.102;2023-04-19T01:47:57;9.10;99.90
27890;DHT22;15238;49.082;9.102;2023-04-19T01:49:58;9.00;99.90
27890;DHT22;15238;49.082;9.102;2023-04-19T01:51:59;9.00;99.90
27890;DHT22;15238;49.082;9.102;2023-04-19T01:54:00;9.00;99.90
27890;DHT22;15238;49.082;9.102;2023-04-19T01:56:01;9.00;99.90
27890;DHT22;15238;49.082;9.102;2023-04-19T01:58:02;8.90;99.90
27890;DHT22;15238;49.082;9.102;2023-04-19T02:00:03;8.90;99.90
27890;DHT22;15238;49.082;9.102;2023-04-19T02:02:06;8.90;99.90
27890;DHT22;15238;49.082;9.102;2023-04-19T02:04:08;8.90;99.90
27890;DHT22;15238;49.082;9.102;2023-04-19T02:06:12;8.80;99.90
27890;DHT22;15238;49.082;9.102;2023-04-19T02:08:12;8.90;99.90
27890;DHT22;15238;49.082;9.102;2023-04-19T02:10:13;8.90;99.90
27890;DHT22;15238;49.082;9.102;2023-04-19T02:12:14;8.90;99.90
27890;DHT22;15238;49.082;9.102;2023-04-19T02:14:14;8.90;99.90
27890;DHT22;15238;49.082;9.102;2023-04-19T02:16:15;8.90;99.90
27890;DHT22;15238;49.082;9.102;2023-04-19T02:18:15;8.90;99.90
27890;DHT22;15238;49.082;9.102;2023-04-19T02:20:16;8.90;99.90
27890;DHT22;15238;49.082;9.102;2023-04-19T02:22:18;8.80;99.90
27890;DHT22;15238;49.082;9.102;2023-04-19T02:24:18;8.80;99.90
27890;DHT22;15238;49.082;9.102;2023-04-19T02:26:19;8.80;99.90
27890;DHT22;15238;49.082;9.102;2023-04-19T02:28:19;8.80;99.90
27890;DHT22;15238;49.082;9.102;2023-04-19T02:30:20;8.80;99.90
27890;DHT22;15238;49.082;9.102;2023-04-19T02:32:21;8.80;99.90
27890;DHT22;15238;49.082;9.102;2023-04-19T02:34:21;8.80;99.90
27890;DHT22;15238;49.082;9.102;2023-04-19T02:36:22;8.70;99.90
27890;DHT22;15238;49.082;9.102;2023-04-19T02:38:22;8.70;99.90
27890;DHT22;15238;49.082;9.102;2023-04-19T02:40:23;8.80;99.90
27890;DHT22;15238;49.082;9.102;2023-04-19T02:42:24;8.80;99.90
27890;DHT22;15238;49.082;9.102;2023-04-19T02:44:25;8.70;99.90
27890;DHT22;15238;49.082;9.102;2023-04-19T02:46:26;8.80;99.90
27890;DHT22;15238;49.082;9.102;2023-04-19T02:48:27;8.80;99.90
27890;DHT22;15238;49.082;9.102;2023-04-19T02:50:27;8.80;99.90
27890;DHT22;15238;49.082;9.102;2023-04-19T02:52:28;8.80;99.90
27890;DHT22;15238;49.082;9.102;2023-04-19T02:54:28;8.80;99.90
27890;DHT22;15238;49.082;9.102;2023-04-19T02:56:29;8.80;99.90
27890;DHT22;15238;49.082;9.102;2023-04-19T02:58:30;8.80;99.90
27890;DHT22;15238;49.082;9.102;2023-04-19T03:00:30;8.70;99.90
27890;DHT22;15238;49.082;9.102;2023-04-19T03:02:31;8.70;99.90
27890;DHT22;15238;49.082;9.102;2023-04-19T03:04:31;8.70;99.90
27890;DHT22;15238;49.082;9.102;2023-04-19T03:06:32;8.80;99.90
27890;DHT22;15238;49.082;9.102;2023-04-19T03:08:32;8.70;99.90
27890;DHT22;15238;49.082;9.102;2023-04-19T03:10:33;8.70;99.90
27890;DHT22;15238;49.082;9.102;2023-04-19T03:12:33;8.70;99.90
27890;DHT22;15238;49.082;9.102;2023-04-19T03:14:34;8.70;99.90
27890;DHT22;15238;49.082;9.102;2023-04-19T03:16:35;8.70;99.90
27890;DHT22;15238;49.082;9.102;2023-04-19T03:18:37;8.70;99.90
27890;DHT22;15238;49.082;9.102;2023-04-19T03:20:37;8.70;99.90
27890;DHT22;15238;49.082;9.102;2023-04-19T03:22:38;8.60;99.90
27890;DHT22;15238;49.082;9.102;2023-04-19T03:24:39;8.60;99.90
27890;DHT22;15238;49.082;9.102;2023-04-19T03:26:39;8.60;99.90
27890;DHT22;15238;49.082;9.102;2023-04-19T03:28:40;8.60;99.90
27890;DHT22;15238;49.082;9.102;2023-04-19T03:30:40;8.50;99.90
27890;DHT22;15238;49.082;9.102;2023-04-19T03:32:41;8.60;99.90
27890;DHT22;15238;49.082;9.102;2023-04-19T03:34:42;8.60;99.90
27890;DHT22;15238;49.082;9.102;2023-04-19T03:36:42;8.50;99.90
27890;DHT22;15238;49.082;9.102;2023-04-19T03:38:43;8.50;99.90
27890;DHT22;15238;49.082;9.102;2023-04-19T03:40:43;8.40;99.90
27890;DHT22;15238;49.082;9.102;2023-04-19T03:42:44;8.40;99.90
27890;DHT22;15238;49.082;9.102;2023-04-19T03:44:44;8.30;99.90
27890;DHT22;15238;49.082;9.102;2023-04-19T03:46:45;8.30;99.90
27890;DHT22;15238;49.082;9.102;2023-04-19T03:48:47;8.30;99.90
27890;DHT22;15238;49.082;9.102;2023-04-19T03:50:48;8.20;99.90
27890;DHT22;15238;49.082;9.102;2023-04-19T03:52:48;8.20;99.90
27890;DHT22;15238;49.082;9.102;2023-04-19T03:54:49;8.10;99.90
27890;DHT22;15238;49.082;9.102;2023-04-19T03:56:49;8.00;99.90
27890;DHT22;15238;49.082;9.102;2023-04-19T03:58:50;7.90;99.90
27890;DHT22;15238;49.082;9.102;2023-04-19T04:00:51;7.90;99.90
27890;DHT22;15238;49.082;9.102;2023-04-19T04:02:52;7.80;99.90
27890;DHT22;15238;49.082;9.102;2023-04-19T04:04:53;7.80;99.90
27890;DHT22;15238;49.082;9.102;2023-04-19T04:06:54;7.80;99.90
27890;DHT22;15238;49.082;9.102;2023-04-19T04:08:55;7.70;99.90
27890;DHT22;15238;49.082;9.102;2023-04-19T04:10:55;7.70;99.90
27890;DHT22;15238;49.082;9.102;2023-04-19T04:12:56;7.60;99.90
27890;DHT22;15238;49.082;9.102;2023-04-19T04:14:56;7.50;99.90
27890;DHT22;15238;49.082;9.102;2023-04-19T04:16:57;7.40;99.90
27890;DHT22;15238;49.082;9.102;2023-04-19T04:18:58;7.40;99.90
27890;DHT22;15238;49.082;9.102;2023-04-19T04:20:58;7.40;99.90
27890;DHT22;15238;49.082;9.102;2023-04-19T04:22:59;7.40;99.90
27890;DHT22;15238;49.082;9.102;2023-04-19T04:24:59;7.30;99.90
27890;DHT22;15238;49.082;9.102;2023-04-19T04:27:01;7.30;99.90
27890;DHT22;15238;49.082;9.102;2023-04-19T04:29:02;7.20;99.90
27890;DHT22;15238;49.082;9.102;2023-04-19T04:31:03;7.20;99.90
27890;DHT22;15238;49.082;9.102;2023-04-19T04:33:03;7.20;99.90
27890;DHT22;15238;49.082;9.102;2023-04-19T04:35:05;7.30;99.90
27890;DHT22;15238;49.082;9.102;2023-04-19T04:37:05;7.30;99.90
27890;DHT22;15238;49.082;9.102;2023-04-19T04:39:08;7.40;99.90
27890;DHT22;15238;49.082;9.102;2023-04-19T04:41:11;7.40;99.90
27890;DHT22;15238;49.082;9.102;2023-04-19T04:43:12;7.40;99.90
27890;DHT22;15238;49.082;9.102;2023-04-19T04:45:12;7.40;99.90
27890;DHT22;15238;49.082;9.102;2023-04-19T04:47:13;7.40;99.90
27890;DHT22;15238;49.082;9.102;2023-04-19T04:49:14;7.40;99.90
27890;DHT22;15238;49.082;9.102;2023-04-19T04:51:14;7.50;99.90
27890;DHT22;15238;49.082;9.102;2023-04-19T04:53:15;7.50;99.90
27890;DHT22;15238;49.082;9.102;2023-04-19T04:55:15;7.50;99.90
27890;DHT22;15238;49.082;9.102;2023-04-19T04:57:16;7.50;99.90
27890;DHT22;15238;49.082;9.102;2023-04-19T04:59:16;7.40;99.90
27890;DHT22;15238;49.082;9.102;2023-04-19T05:01:17;7.40;99.90
27890;DHT22;15238;49.082;9.102;2023-04-19T05:03:18;7.50;99.90
27890;DHT22;15238;49.082;9.102;2023-04-19T05:05:19;7.50;99.90
27890;DHT22;15238;49.082;9.102;2023-04-19T05:07:20;7.60;99.90
27890;DHT22;15238;49.082;9.102;2023-04-19T05:09:20;7.70;99.90
27890;DHT22;15238;49.082;9.102;2023-04-19T05:11:21;7.80;99.90
27890;DHT22;15238;49.082;9.102;2023-04-19T05:13:21;7.90;99.90
27890;DHT22;15238;49.082;9.102;2023-04-19T05:15:22;8.00;99.90
27890;DHT22;15238;49.082;9.102;2023-04-19T05:17:22;8.10;99.90
27890;DHT22;15238;49.082;9.102;2023-04-19T05:19:23;8.30;99.90
27890;DHT22;15238;49.082;9.102;2023-04-19T05:21:24;8.30;99.90
27890;DHT22;15238;49.082;9.102;2023-04-19T05:23:24;8.40;99.90
27890;DHT22;15238;49.082;9.102;2023-04-19T05:25:25;8.40;99.90
27890;DHT22;15238;49.082;9.102;2023-04-19T05:27:26;8.40;99.90
27890;DHT22;15238;49.082;9.102;2023-04-19T05:29:27;8.50;99.90
27890;DHT22;15238;49.082;9.102;2023-04-19T05:31:27;8.50;99.90
27890;DHT22;15238;49.082;9.102;2023-04-19T05:33:28;8.50;99.90
27890;DHT22;15238;49.082;9.102;2023-04-19T05:35:28;8.60;99.90
27890;DHT22;15238;49.082;9.102;2023-04-19T05:37:29;8.60;99.90
27890;DHT22;15238;49.082;9.102;2023-04-19T05:39:29;8.60;99.90
27890;DHT22;15238;49.082;9.102;2023-04-19T05:41:30;8.70;99.90
27890;DHT22;15238;49.082;9.102;2023-04-19T05:43:30;8.80;99.90
27890;DHT22;15238;49.082;9.102;2023-04-19T05:45:31;8.80;99.90
27890;DHT22;15238;49.082;9.102;2023-04-19T05:47:32;8.90;99.90
27890;DHT22;15238;49.082;9.102;2023-04-19T05:49:32;8.80;99.90
27890;DHT22;15238;49.082;9.102;2023-04-19T05:51:33;8.80;99.90
27890;DHT22;15238;49.082;9.102;2023-04-19T05:53:33;8.80;99.90
27890;DHT22;15238;49.082;9.102;2023-04-19T05:55:34;8.80;99.90
27890;DHT22;15238;49.082;9.102;2023-04-19T05:57:34;9.00;99.90
27890;DHT22;15238;49.082;9.102;2023-04-19T05:59:35;9.10;99.90
27890;DHT22;15238;49.082;9.102;2023-04-19T06:01:35;9.00;99.90
27890;DHT22;15238;49.082;9.102;2023-04-19T06:03:36;9.10;99.90
27890;DHT22;15238;49.082;9.102;2023-04-19T06:05:36;9.30;99.90
27890;DHT22;15238;49.082;9.102;2023-04-19T06:07:37;9.30;99.90
27890;DHT22;15238;49.082;9.102;2023-04-19T06:09:37;9.20;99.90
27890;DHT22;15238;49.082;9.102;2023-04-19T06:11:38;9.30;99.90
27890;DHT22;15238;49.082;9.102;2023-04-19T06:13:38;9.40;99.90
27890;DHT22;15238;49.082;9.102;2023-04-19T06:15:39;9.60;99.90
27890;DHT22;15238;49.082;9.102;2023-04-19T06:17:39;9.80;99.90
27890;DHT22;15238;49.082;9.102;2023-04-19T06:19:40;9.60;99.90
27890;DHT22;15238;49.082;9.102;2023-04-19T06:21:41;9.70;99.90
27890;DHT22;15238;49.082;9.102;2023-04-19T06:23:42;9.90;99.90
27890;DHT22;15238;49.082;9.102;2023-04-19T06:25:42;10.00;99.90
27890;DHT22;15238;49.082;9.102;2023-04-19T06:27:43;10.10;99.90
27890;DHT22;15238;49.082;9.102;2023-04-19T06:29:43;10.10;99.90
27890;DHT22;15238;49.082;9.102;2023-04-19T06:31:44;10.10;99.90
27890;DHT22;15238;49.082;9.102;2023-04-19T06:33:45;10.20;99.90
27890;DHT22;15238;49.082;9.102;2023-04-19T06:35:46;10.20;99.90
27890;DHT22;15238;49.082;9.102;2023-04-19T06:37:46;10.10;99.90
27890;DHT22;15238;49.082;9.102;2023-04-19T06:39:47;10.10;99.90
27890;DHT22;15238;49.082;9.102;2023-04-19T06:41:48;10.10;99.90
27890;DHT22;15238;49.082;9.102;2023-04-19T06:43:49;10.20;99.90
27890;DHT22;15238;49.082;9.102;2023-04-19T06:45:59;10.30;99.90
27890;DHT22;15238;49.082;9.102;2023-04-19T06:48:00;10.40;99.90
27890;DHT22;15238;49.082;9.102;2023-04-19T06:50:01;10.70;99.90
27890;DHT22;15238;49.082;9.102;2023-04-19T06:52:01;10.70;99.90
27890;DHT22;15238;49.082;9.102;2023-04-19T06:54:02;10.70;99.90
27890;DHT22;15238;49.082;9.102;2023-04-19T06:56:03;10.70;99.90
27890;DHT22;15238;49.082;9.102;2023-04-19T06:58:04;10.70;99.90
27890;DHT22;15238;49.082;9.102;2023-04-19T07:00:07;10.60;99.90
27890;DHT22;15238;49.082;9.102;2023-04-19T07:02:08;10.60;99.90
27890;DHT22;15238;49.082;9.102;2023-04-19T07:04:09;10.60;99.90
27890;DHT22;15238;49.082;9.102;2023-04-19T07:06:09;10.60;99.90
27890;DHT22;15238;49.082;9.102;2023-04-19T07:08:10;10.60;99.90
27890;DHT22;15238;49.082;9.102;2023-04-19T07:10:11;10.70;99.90
27890;DHT22;15238;49.082;9.102;2023-04-19T07:12:12;10.90;99.90
27890;DHT22;15238;49.082;9.102;2023-04-19T07:14:13;11.20;99.90
27890;DHT22;15238;49.082;9.102;2023-04-19T07:16:13;11.50;99.90
27890;DHT22;15238;49.082;9.102;2023-04-19T07:18:14;11.60;99.90
27890;DHT22;15238;49.082;9.102;2023-04-19T07:20:15;11.70;99.90
27890;DHT22;15238;49.082;9.102;2023-04-19T07:22:15;11.80;99.90
27890;DHT22;15238;49.082;9.102;2023-04-19T07:24:16;11.90;99.90
27890;DHT22;15238;49.082;9.102;2023-04-19T07:26:17;11.70;99.90
27890;DHT22;15238;49.082;9.102;2023-04-19T07:28:17;12.00;99.90
27890;DHT22;15238;49.082;9.102;2023-04-19T07:30:18;12.00;99.90
27890;DHT22;15238;49.082;9.102;2023-04-19T07:32:18;12.00;99.90
27890;DHT22;15238;49.082;9.102;2023-04-19T07:34:20;12.10;99.90
27890;DHT22;15238;49.082;9.102;2023-04-19T07:36:20;12.30;99.90
27890;DHT22;15238;49.082;9.102;2023-04-19T07:38:21;12.20;99.90
27890;DHT22;15238;49.082;9.102;2023-04-19T07:40:22;12.40;99.90
27890;DHT22;15238;49.082;9.102;2023-04-19T07:42:23;12.30;99.90
27890;DHT22;15238;49.082;9.102;2023-04-19T07:44:24;12.20;99.90
27890;DHT22;15238;49.082;9.102;2023-04-19T07:46:24;11.40;99.90
27890;DHT22;15238;49.082;9.102;2023-04-19T07:48:25;11.50;99.90
27890;DHT22;15238;49.082;9.102;2023-04-19T07:50:26;11.70;99.90
27890;DHT22;15238;49.082;9.102;2023-04-19T07:52:26;11.90;99.90
27890;DHT22;15238;49.082;9.102;2023-04-19T07:54:28;11.70;99.90
27890;DHT22;15238;49.082;9.102;2023-04-19T07:56:29;11.60;99.90
27890;DHT22;15238;49.082;9.102;2023-04-19T07:58:30;11.60;99.90
27890;DHT22;15238;49.082;9.102;2023-04-19T08:00:30;11.40;99.90
27890;DHT22;15238;49.082;9.102;2023-04-19T08:02:34;11.30;99.90
27890;DHT22;15238;49.082;9.102;2023-04-19T08:04:34;11.00;99.90
27890;DHT22;15238;49.082;9.102;2023-04-19T08:06:37;11.00;99.90
27890;DHT22;15238;49.082;9.102;2023-04-19T08:08:39;11.10;99.90
27890;DHT22;15238;49.082;9.102;2023-04-19T08:10:39;11.00;99.90
27890;DHT22;15238;49.082;9.102;2023-04-19T08:12:40;11.00;99.90
27890;DHT22;15238;49.082;9.102;2023-04-19T08:14:41;11.10;99.90
27890;DHT22;15238;49.082;9.102;2023-04-19T08:16:41;11.20;99.90
27890;DHT22;15238;49.082;9.102;2023-04-19T08:18:42;11.20;99.90
27890;DHT22;15238;49.082;9.102;2023-04-19T08:20:46;11.10;99.90
27890;DHT22;15238;49.082;9.102;2023-04-19T08:22:46;11.20;99.90
27890;DHT22;15238;49.082;9.102;2023-04-19T08:24:50;11.20;99.90
27890;DHT22;15238;49.082;9.102;2023-04-19T08:26:52;11.20;99.90
27890;DHT22;15238;49.082;9.102;2023-04-19T08:28:53;11.40;99.90
27890;DHT22;15238;49.082;9.102;2023-04-19T08:30:54;11.60;99.90
27890;DHT22;15238;49.082;9.102;2023-04-19T08:32:54;11.80;99.90
27890;DHT22;15238;49.082;9.102;2023-04-19T08:34:55;12.10;99.90
27890;DHT22;15238;49.082;9.102;2023-04-19T08:36:56;12.50;99.90
27890;DHT22;15238;49.082;9.102;2023-04-19T08:38:57;12.90;99.90
27890;DHT22;15238;49.082;9.102;2023-04-19T08:40:57;13.00;99.90
27890;DHT22;15238;49.082;9.102;2023-04-19T08:42:58;13.10;99.90
27890;DHT22;15238;49.082;9.102;2023-04-19T08:45:02;13.00;99.90
27890;DHT22;15238;49.082;9.102;2023-04-19T08:47:06;13.00;99.90
27890;DHT22;15238;49.082;9.102;2023-04-19T08:49:08;12.60;99.90
27890;DHT22;15238;49.082;9.102;2023-04-19T08:51:11;12.50;99.90
27890;DHT22;15238;49.082;9.102;2023-04-19T08:53:13;12.30;99.90
27890;DHT22;15238;49.082;9.102;2023-04-19T08:55:15;12.30;99.90
27890;DHT22;15238;49.082;9.102;2023-04-19T08:57:16;12.30;99.90
27890;DHT22;15238;49.082;9.102;2023-04-19T08:59:16;12.20;99.90
27890;DHT22;15238;49.082;9.102;2023-04-19T09:01:17;12.20;99.90
27890;DHT22;15238;49.082;9.102;2023-04-19T09:03:18;12.30;99.90
27890;DHT22;15238;49.082;9.102;2023-04-19T09:05:18;12.30;99.90
27890;DHT22;15238;49.082;9.102;2023-04-19T09:07:26;12.50;99.90
27890;DHT22;15238;49.082;9.102;2023-04-19T09:09:28;12.90;99.90
27890;DHT22;15238;49.082;9.102;2023-04-19T09:11:36;13.30;99.90
27890;DHT22;15238;49.082;9.102;2023-04-19T09:13:39;14.00;99.90
27890;DHT22;15238;49.082;9.102;2023-04-19T09:15:41;14.40;99.90
27890;DHT22;15238;49.082;9.102;2023-04-19T09:17:44;15.00;99.90
27890;DHT22;15238;49.082;9.102;2023-04-19T09:20:04;15.00;99.90
27890;DHT22;15238;49.082;9.102;2023-04-19T09:22:14;15.20;99.90
27890;DHT22;15238;49.082;9.102;2023-04-19T09:24:15;15.50;99.90
27890;DHT22;15238;49.082;9.102;2023-04-19T09:26:15;15.00;99.90
27890;DHT22;15238;49.082;9.102;2023-04-19T09:28:16;14.70;99.90
27890;DHT22;15238;49.082;9.102;2023-04-19T09:30:20;14.70;99.90
27890;DHT22;15238;49.082;9.102;2023-04-19T09:32:24;14.30;99.90
27890;DHT22;15238;49.082;9.102;2023-04-19T09:34:25;14.30;99.90
27890;DHT22;15238;49.082;9.102;2023-04-19T09:36:30;14.30;99.90
27890;DHT22;15238;49.082;9.102;2023-04-19T09:38:57;14.10;99.90
27890;DHT22;15238;49.082;9.102;2023-04-19T09:41:07;13.80;99.90
27890;DHT22;15238;49.082;9.102;2023-04-19T09:43:08;13.60;99.90
27890;DHT22;15238;49.082;9.102;2023-04-19T09:45:09;13.40;99.90
27890;DHT22;15238;49.082;9.102;2023-04-19T09:47:21;13.40;99.90
27890;DHT22;15238;49.082;9.102;2023-04-19T09:49:23;13.00;99.90
27890;DHT22;15238;49.082;9.102;2023-04-19T09:51:39;12.90;99.90
27890;DHT22;15238;49.082;9.102;2023-04-19T09:53:41;12.90;99.90
27890;DHT22;15238;49.082;9.102;2023-04-19T09:55:43;12.90;99.90
27890;DHT22;15238;49.082;9.102;2023-04-19T09:57:43;12.90;99.90
27890;DHT22;15238;49.082;9.102;2023-04-19T09:59:44;12.80;99.90
27890;DHT22;15238;49.082;9.102;2023-04-19T10:01:54;12.70;99.90
27890;DHT22;15238;49.082;9.102;2023-04-19T10:03:58;12.70;99.90
27890;DHT22;15238;49.082;9.102;2023-04-19T10:05:59;12.70;99.90
27890;DHT22;15238;49.082;9.102;2023-04-19T10:08:00;12.60;99.90
27890;DHT22;15238;49.082;9.102;2023-04-19T10:10:01;12.60;99.90
27890;DHT22;15238;49.082;9.102;2023-04-19T10:12:04;12.50;99.90
27890;DHT22;15238;49.082;9.102;2023-04-19T10:14:07;12.40;99.90
27890;DHT22;15238;49.082;9.102;2023-04-19T10:16:08;12.10;99.90
27890;DHT22;15238;49.082;9.102;2023-04-19T10:18:09;11.90;99.90
27890;DHT22;15238;49.082;9.102;2023-04-19T10:22:36;12.00;99.90
27890;DHT22;15238;49.082;9.102;2023-04-19T10:24:38;12.00;99.90
27890;DHT22;15238;49.082;9.102;2023-04-19T10:29:07;12.00;99.90
27890;DHT22;15238;49.082;9.102;2023-04-19T10:31:10;12.00;99.90
27890;DHT22;15238;49.082;9.102;2023-04-19T10:33:26;12.00;99.90
27890;DHT22;15238;49.082;9.102;2023-04-19T10:35:37;11.80;99.90
27890;DHT22;15238;49.082;9.102;2023-04-19T10:37:40;11.70;99.90
27890;DHT22;15238;49.082;9.102;2023-04-19T10:39:43;11.70;99.90
27890;DHT22;15238;49.082;9.102;2023-04-19T10:41:56;11.70;99.90
27890;DHT22;15238;49.082;9.102;2023-04-19T10:55:49;11.60;99.90
27890;DHT22;15238;49.082;9.102;2023-04-19T10:58:03;11.60;99.90
27890;DHT22;15238;49.082;9.102;2023-04-19T11:00:21;11.60;99.90
27890;DHT22;15238;49.082;9.102;2023-04-19T11:06:35;11.60;99.90
27890;DHT22;15238;49.082;9.102;2023-04-19T11:08:42;11.50;99.90
27890;DHT22;15238;49.082;9.102;2023-04-19T11:10:43;11.40;99.90
27890;DHT22;15238;49.082;9.102;2023-04-19T11:12:44;11.20;99.90
27890;DHT22;15238;49.082;9.102;2023-04-19T11:14:46;11.10;99.90
27890;DHT22;15238;49.082;9.102;2023-04-19T11:16:47;11.10;99.90
27890;DHT22;15238;49.082;9.102;2023-04-19T11:18:47;11.10;99.90
27890;DHT22;15238;49.082;9.102;2023-04-19T11:20:52;11.00;99.90
27890;DHT22;15238;49.082;9.102;2023-04-19T11:22:53;11.00;99.90
27890;DHT22;15238;49.082;9.102;2023-04-19T11:25:16;11.00;99.90
27890;DHT22;15238;49.082;9.102;2023-04-19T11:27:18;11.00;99.90
27890;DHT22;15238;49.082;9.102;2023-04-19T11:29:19;10.90;99.90
27890;DHT22;15238;49.082;9.102;2023-04-19T11:31:21;10.80;99.90
27890;DHT22;15238;49.082;9.102;2023-04-19T11:33:22;10.80;99.90
27890;DHT22;15238;49.082;9.102;2023-04-19T11:35:26;10.80;99.90
27890;DHT22;15238;49.082;9.102;2023-04-19T11:37:31;10.80;99.90
27890;DHT22;15238;49.082;9.102;2023-04-19T11:39:32;10.80;99.90
27890;DHT22;15238;49.082;9.102;2023-04-19T11:41:37;10.80;99.90
27890;DHT22;15238;49.082;9.102;2023-04-19T11:43:38;10.70;99.90
27890;DHT22;15238;49.082;9.102;2023-04-19T11:45:40;10.70;99.90
27890;DHT22;15238;49.082;9.102;2023-04-19T11:47:47;10.70;99.90
27890;DHT22;15238;49.082;9.102;2023-04-19T11:49:48;10.80;99.90
27890;DHT22;15238;49.082;9.102;2023-04-19T11:51:55;10.90;99.90
27890;DHT22;15238;49.082;9.102;2023-04-19T11:53:55;10.90;99.90
27890;DHT22;15238;49.082;9.102;2023-04-19T11:56:04;10.80;99.90
27890;DHT22;15238;49.082;9.102;2023-04-19T11:58:07;10.80;99.90
27890;DHT22;15238;49.082;9.102;2023-04-19T12:00:09;10.90;99.90
27890;DHT22;15238;49.082;9.102;2023-04-19T12:02:11;10.80;99.90
27890;DHT22;15238;49.082;9.102;2023-04-19T12:04:12;10.70;99.90
27890;DHT22;15238;49.082;9.102;2023-04-19T12:06:15;10.80;99.90
27890;DHT22;15238;49.082;9.102;2023-04-19T12:08:16;10.80;99.90
27890;DHT22;15238;49.082;9.102;2023-04-19T12:10:16;10.80;99.90
27890;DHT22;15238;49.082;9.102;2023-04-19T12:12:43;10.80;99.90
27890;DHT22;15238;49.082;9.102;2023-04-19T12:14:51;10.90;99.90
27890;DHT22;15238;49.082;9.102;2023-04-19T12:17:09;10.90;99.90
27890;DHT22;15238;49.082;9.102;2023-04-19T12:19:15;10.90;99.90
27890;DHT22;15238;49.082;9.102;2023-04-19T12:21:27;11.00;99.90
27890;DHT22;15238;49.082;9.102;2023-04-19T12:23:28;11.00;99.90
27890;DHT22;15238;49.082;9.102;2023-04-19T12:25:30;11.00;99.90
27890;DHT22;15238;49.082;9.102;2023-04-19T12:27:30;11.10;99.90
27890;DHT22;15238;49.082;9.102;2023-04-19T12:29:31;11.20;99.90
27890;DHT22;15238;49.082;9.102;2023-04-19T12:31:33;11.20;99.90
27890;DHT22;15238;49.082;9.102;2023-04-19T12:33:33;11.30;99.90
27890;DHT22;15238;49.082;9.102;2023-04-19T12:35:34;11.40;99.90
27890;DHT22;15238;49.082;9.102;2023-04-19T12:37:35;11.50;99.90
27890;DHT22;15238;49.082;9.102;2023-04-19T12:39:35;11.70;99.90
27890;DHT22;15238;49.082;9.102;2023-04-19T12:41:36;11.90;99.90
27890;DHT22;15238;49.082;9.102;2023-04-19T12:43:36;11.90;99.90
27890;DHT22;15238;49.082;9.102;2023-04-19T12:45:37;12.10;99.90
27890;DHT22;15238;49.082;9.102;2023-04-19T12:47:38;12.10;99.90
27890;DHT22;15238;49.082;9.102;2023-04-19T12:49:39;12.20;99.90
27890;DHT22;15238;49.082;9.102;2023-04-19T12:51:39;12.20;99.90
27890;DHT22;15238;49.082;9.102;2023-04-19T12:53:47;12.30;99.90
27890;DHT22;15238;49.082;9.102;2023-04-19T12:55:47;12.30;99.90
27890;DHT22;15238;49.082;9.102;2023-04-19T12:57:49;12.20;99.90
27890;DHT22;15238;49.082;9.102;2023-04-19T12:59:49;12.00;99.90
27890;DHT22;15238;49.082;9.102;2023-04-19T13:01:50;11.90;99.90
27890;DHT22;15238;49.082;9.102;2023-04-19T13:03:51;12.10;99.90
27890;DHT22;15238;49.082;9.102;2023-04-19T13:05:51;12.10;99.90
27890;DHT22;15238;49.082;9.102;2023-04-19T13:07:52;12.30;99.90
27890;DHT22;15238;49.082;9.102;2023-04-19T13:09:52;12.30;99.90
27890;DHT22;15238;49.082;9.102;2023-04-19T13:11:56;12.30;99.90
27890;DHT22;15238;49.082;9.102;2023-04-19T13:13:57;12.40;99.90
27890;DHT22;15238;49.082;9.102;2023-04-19T13:15:57;12.50;99.90